createdAt,value
2018-03-21T00:01:35.242Z,6.10
2018-03-21T00:04:02.849Z,5.70
2018-03-21T00:06:30.435Z,6.70
2018-03-21T00:08:58.078Z,10.00
2018-03-21T00:11:25.763Z,9.13
2018-03-21T00:13:53.371Z,5.63
2018-03-21T00:16:21.780Z,7.43
2018-03-21T00:18:49.367Z,7.03
2018-03-21T00:21:16.963Z,7.97
2018-03-21T00:23:45.371Z,7.43
2018-03-21T00:26:12.966Z,10.70
2018-03-21T00:28:40.595Z,7.10
2018-03-21T00:31:08.186Z,11.10
2018-03-21T00:33:35.845Z,9.93
2018-03-21T00:36:03.501Z,11.40
2018-03-21T00:38:31.086Z,10.20
2018-03-21T00:40:58.728Z,10.83
2018-03-21T00:43:26.326Z,11.23
2018-03-21T00:45:54.682Z,10.30
2018-03-21T00:48:22.309Z,10.63
2018-03-21T00:50:49.909Z,12.13
2018-03-21T00:53:18.266Z,9.93
2018-03-21T00:55:45.905Z,10.97
2018-03-21T00:58:13.556Z,15.40
2018-03-21T01:00:41.134Z,11.23
2018-03-21T01:03:08.748Z,9.10
2018-03-21T01:05:36.371Z,8.70
2018-03-21T01:08:03.975Z,8.80
2018-03-21T01:10:31.625Z,9.97
2018-03-21T01:12:59.999Z,10.77
2018-03-21T01:15:28.358Z,9.87
2018-03-21T01:17:56.786Z,8.73
2018-03-21T01:20:24.387Z,8.23
2018-03-21T01:22:51.993Z,9.53
2018-03-21T01:25:20.306Z,6.37
2018-03-21T01:27:47.895Z,9.13
2018-03-21T01:30:15.532Z,9.03
2018-03-21T01:32:43.801Z,6.63
2018-03-21T01:35:11.390Z,6.20
2018-03-21T01:37:39.237Z,6.63
2018-03-21T01:40:06.874Z,9.20
2018-03-21T01:42:34.464Z,6.40
2018-03-21T01:45:02.134Z,7.07
2018-03-21T01:47:30.521Z,8.63
2018-03-21T01:49:58.907Z,4.87
2018-03-21T01:52:27.302Z,6.73
2018-03-21T01:54:54.900Z,7.90
2018-03-21T01:57:23.292Z,7.37
2018-03-21T01:59:50.926Z,7.90
2018-03-21T02:02:18.554Z,7.67
2018-03-21T02:04:46.163Z,6.80
2018-03-21T02:07:13.818Z,7.53
2018-03-21T02:09:43.090Z,7.47
2018-03-21T02:12:10.696Z,7.40
2018-03-21T02:14:39.822Z,8.97
2018-03-21T02:17:07.507Z,9.10
2018-03-21T02:19:35.122Z,8.57
2018-03-21T02:22:02.715Z,6.03
2018-03-21T02:24:30.343Z,9.50
2018-03-21T02:26:57.965Z,9.47
2018-03-21T02:29:25.610Z,9.80
2018-03-21T02:31:53.224Z,8.10
2018-03-21T02:34:20.823Z,8.10
2018-03-21T02:36:48.450Z,11.07
2018-03-21T02:39:16.876Z,8.90
2018-03-21T02:41:44.492Z,7.37
2018-03-21T02:44:12.874Z,6.43
2018-03-21T02:46:41.308Z,9.93
2018-03-21T02:49:08.918Z,9.07
2018-03-21T02:51:37.284Z,8.20
2018-03-21T02:54:05.690Z,8.27
2018-03-21T02:56:33.327Z,6.23
2018-03-21T02:59:01.712Z,8.30
2018-03-21T03:01:30.085Z,5.50
2018-03-21T03:03:58.509Z,6.03
2018-03-21T03:06:26.114Z,6.20
2018-03-21T03:08:54.469Z,8.43
2018-03-21T03:11:22.173Z,5.83
2018-03-21T03:13:49.811Z,8.40
2018-03-21T03:16:18.171Z,7.73
2018-03-21T03:21:27.466Z,6.67
2018-03-21T03:23:55.049Z,4.90
2018-03-21T03:26:22.634Z,7.20
2018-03-21T03:28:51.809Z,5.63
2018-03-21T03:31:19.400Z,5.87
2018-03-21T03:33:47.098Z,6.03
2018-03-21T03:36:15.541Z,5.43
2018-03-21T03:38:43.142Z,5.77
2018-03-21T03:41:10.734Z,5.93
2018-03-21T03:43:38.363Z,5.77
2018-03-21T03:46:05.976Z,4.10
2018-03-21T03:48:33.597Z,4.60
2018-03-21T03:51:01.205Z,6.10
2018-03-21T03:53:28.814Z,4.60
2018-03-21T03:55:56.466Z,5.70
2018-03-21T03:58:24.060Z,6.27
2018-03-21T04:00:51.662Z,3.50
2018-03-21T04:03:20.170Z,5.13
2018-03-21T04:05:47.811Z,7.87
2018-03-21T04:08:16.212Z,4.80
2018-03-21T04:10:43.804Z,6.10
2018-03-21T04:13:11.395Z,5.63
2018-03-21T04:15:39.805Z,6.50
2018-03-21T04:18:07.398Z,6.83
2018-03-21T04:20:34.983Z,6.13
2018-03-21T04:23:02.598Z,4.90
2018-03-21T04:25:30.185Z,6.07
2018-03-21T04:27:57.847Z,4.73
2018-03-21T04:30:26.207Z,4.77
2018-03-21T04:32:53.806Z,4.60
2018-03-21T04:35:22.188Z,5.30
2018-03-21T04:37:51.056Z,7.50
2018-03-21T04:40:18.686Z,6.77
2018-03-21T04:42:46.503Z,8.00
2018-03-21T04:45:15.484Z,8.40
2018-03-21T04:47:43.892Z,7.30
2018-03-21T04:50:11.497Z,5.53
2018-03-21T04:52:39.086Z,9.37
2018-03-21T04:55:07.523Z,6.40
2018-03-21T04:57:35.115Z,7.00
2018-03-21T05:00:02.705Z,9.63
2018-03-21T05:02:30.422Z,6.97
2018-03-21T05:04:58.031Z,7.87
2018-03-21T05:07:25.635Z,6.27
2018-03-21T05:09:53.332Z,8.43
2018-03-21T05:12:21.736Z,8.40
2018-03-21T05:14:49.342Z,7.20
2018-03-21T05:17:16.960Z,6.47
2018-03-21T05:19:44.594Z,5.30
2018-03-21T05:22:12.969Z,7.00
2018-03-21T05:24:41.350Z,8.17
2018-03-21T05:27:09.007Z,6.50
2018-03-21T05:29:37.387Z,8.70
2018-03-21T05:32:05.794Z,8.00
2018-03-21T05:34:33.385Z,6.90
2018-03-21T05:37:00.988Z,6.43
2018-03-21T05:39:29.401Z,8.00
2018-03-21T05:41:57.617Z,7.30
2018-03-21T05:44:25.207Z,7.83
2018-03-21T05:46:52.837Z,6.33
2018-03-21T05:49:20.453Z,7.17
2018-03-21T05:51:48.058Z,8.30
2018-03-21T05:54:15.654Z,4.93
2018-03-21T05:56:43.289Z,5.77
2018-03-21T05:59:10.883Z,6.23
2018-03-21T06:01:38.594Z,5.20
2018-03-21T06:04:07.599Z,7.03
2018-03-21T06:06:35.191Z,8.00
2018-03-21T06:09:02.784Z,9.90
2018-03-21T06:11:30.404Z,7.80
2018-03-21T06:13:57.993Z,6.80
2018-03-21T06:16:25.602Z,9.33
2018-03-21T06:18:54.009Z,8.33
2018-03-21T06:21:21.672Z,6.70
2018-03-21T06:23:49.312Z,11.33
2018-03-21T06:26:17.689Z,12.17
2018-03-21T06:28:46.841Z,9.37
2018-03-21T06:31:14.466Z,11.80
2018-03-21T06:33:42.059Z,8.43
2018-03-21T06:36:09.698Z,7.37
2018-03-21T06:38:37.292Z,8.13
2018-03-21T06:41:04.897Z,10.40
2018-03-21T06:43:32.589Z,9.10
2018-03-21T06:46:00.878Z,9.37
2018-03-21T06:48:29.483Z,9.63
2018-03-21T06:50:57.858Z,7.30
2018-03-21T06:53:25.503Z,10.13
2018-03-21T06:55:53.087Z,8.77
2018-03-21T06:58:21.524Z,10.67
2018-03-21T07:00:49.154Z,11.57
2018-03-21T07:03:16.756Z,13.03
2018-03-21T07:05:44.972Z,12.67
2018-03-21T07:08:13.404Z,17.93
2018-03-21T07:10:41.036Z,11.77
2018-03-21T07:13:08.653Z,13.60
2018-03-21T07:15:48.460Z,13.67
2018-03-21T07:18:16.060Z,16.70
2018-03-21T07:20:43.695Z,14.50
2018-03-21T07:23:11.339Z,11.70
2018-03-21T07:25:38.950Z,9.97
2018-03-21T07:28:07.314Z,12.87
2018-03-21T07:30:35.005Z,15.70
2018-03-21T07:33:02.647Z,13.90
2018-03-21T07:35:30.248Z,18.70
2018-03-21T07:37:57.837Z,11.50
2018-03-21T07:40:25.474Z,14.70
2018-03-21T07:42:53.067Z,13.60
2018-03-21T07:45:20.667Z,16.10
2018-03-21T07:47:48.286Z,11.53
2018-03-21T07:50:15.925Z,12.63
2018-03-21T07:52:44.708Z,11.67
2018-03-21T07:55:12.325Z,16.93
2018-03-21T07:57:42.256Z,11.80
2018-03-21T08:00:09.854Z,12.27
2018-03-21T08:02:37.506Z,17.23
2018-03-21T08:05:05.117Z,12.33
2018-03-21T08:07:33.502Z,13.37
2018-03-21T08:10:01.875Z,14.77
2018-03-21T08:12:30.312Z,10.00
2018-03-21T08:14:58.078Z,9.60
2018-03-21T08:17:26.472Z,13.00
2018-03-21T08:19:54.092Z,13.57
2018-03-21T08:22:23.651Z,9.73
2018-03-21T08:24:52.070Z,11.93
2018-03-21T08:27:19.688Z,9.40
2018-03-21T08:29:47.360Z,9.87
2018-03-21T08:32:15.751Z,11.00
2018-03-21T08:34:44.252Z,12.03
2018-03-21T08:37:11.874Z,13.50
2018-03-21T08:39:40.304Z,8.87
2018-03-21T08:42:09.058Z,10.90
2018-03-21T08:44:37.426Z,11.00
2018-03-21T08:47:05.807Z,10.07
2018-03-21T08:49:34.163Z,6.93
2018-03-21T08:52:01.790Z,7.70
2018-03-21T08:54:30.258Z,8.33
2018-03-21T08:56:58.604Z,5.30
2018-03-21T08:59:27.449Z,5.97
2018-03-21T09:01:55.125Z,13.23
2018-03-21T09:04:27.155Z,9.70
2018-03-21T09:06:54.816Z,12.27
2018-03-21T09:09:22.758Z,10.83
2018-03-21T09:11:50.342Z,10.23
2018-03-21T09:14:17.979Z,9.50
2018-03-21T09:16:45.899Z,5.60
2018-03-21T09:19:14.324Z,9.27
2018-03-21T09:21:42.572Z,11.80
2018-03-21T09:24:11.595Z,8.40
2018-03-21T09:26:39.910Z,7.50
2018-03-21T09:29:08.115Z,4.70
2018-03-21T09:31:36.509Z,7.63
2018-03-21T09:34:04.894Z,8.37
2018-03-21T09:36:32.522Z,4.47
2018-03-21T09:39:00.099Z,6.50
2018-03-21T09:41:28.474Z,8.73
2018-03-21T09:43:56.854Z,8.60
2018-03-21T09:46:25.255Z,9.20
2018-03-21T09:48:52.886Z,7.87
2018-03-21T09:51:21.318Z,6.17
2018-03-21T09:53:49.143Z,8.33
2018-03-21T09:56:17.726Z,8.10
2018-03-21T09:58:46.074Z,6.77
2018-03-21T10:01:14.453Z,6.90
2018-03-21T10:03:42.092Z,6.77
2018-03-21T10:06:09.679Z,5.87
2018-03-21T10:08:37.307Z,8.63
2018-03-21T10:11:04.889Z,7.17
2018-03-21T10:13:32.479Z,9.33
2018-03-21T10:16:00.877Z,6.17
2018-03-21T10:18:28.478Z,5.90
2018-03-21T10:20:56.076Z,7.47
2018-03-21T10:23:24.499Z,7.70
2018-03-21T10:25:52.078Z,6.63
2018-03-21T10:28:20.452Z,6.80
2018-03-21T10:30:48.061Z,6.50
2018-03-21T10:33:15.666Z,6.27
2018-03-21T10:35:43.498Z,9.83
2018-03-21T10:38:11.581Z,12.57
2018-03-21T10:40:39.371Z,5.17
2018-03-21T10:43:07.658Z,8.00
2018-03-21T10:45:35.238Z,6.67
2018-03-21T10:48:03.060Z,6.03
2018-03-21T10:50:30.791Z,6.57
2018-03-21T10:52:58.378Z,6.60
2018-03-21T10:55:25.961Z,7.20
2018-03-21T10:57:53.550Z,9.50
2018-03-21T11:00:21.897Z,7.97
2018-03-21T11:02:56.673Z,7.83
2018-03-21T11:05:24.280Z,7.37
2018-03-21T11:07:51.855Z,6.23
2018-03-21T11:10:20.262Z,6.40
2018-03-21T11:12:47.870Z,7.40
2018-03-21T11:15:15.448Z,6.30
2018-03-21T11:17:43.071Z,8.17
2018-03-21T11:20:10.651Z,4.83
2018-03-21T11:22:38.460Z,5.50
2018-03-21T11:25:06.118Z,4.33
2018-03-21T11:27:33.720Z,7.60
2018-03-21T11:30:01.302Z,5.13
2018-03-21T11:32:28.906Z,6.33
2018-03-21T11:34:56.914Z,6.70
2018-03-21T11:37:24.593Z,6.57
2018-03-21T11:39:52.325Z,8.03
2018-03-21T11:42:19.948Z,5.53
2018-03-21T11:44:48.367Z,6.17
2018-03-21T11:47:15.949Z,6.80
2018-03-21T11:49:43.546Z,8.10
2018-03-21T11:52:11.896Z,6.50
2018-03-21T11:54:39.483Z,4.07
2018-03-21T11:57:07.862Z,6.77
2018-03-21T11:59:36.219Z,5.30
2018-03-21T12:02:03.832Z,6.50
2018-03-21T12:04:32.829Z,7.57
2018-03-21T12:07:00.410Z,5.43
2018-03-21T12:09:28.660Z,8.73
2018-03-21T12:11:56.251Z,5.27
2018-03-21T12:14:23.829Z,5.03
2018-03-21T12:16:52.211Z,8.23
2018-03-21T12:19:20.638Z,5.13
2018-03-21T12:21:48.237Z,3.43
2018-03-21T12:24:15.890Z,6.17
2018-03-21T12:26:43.469Z,4.27
2018-03-21T12:29:11.881Z,7.73
2018-03-21T12:31:39.482Z,7.67
2018-03-21T12:34:07.665Z,6.40
2018-03-21T12:36:35.262Z,5.83
2018-03-21T12:39:03.007Z,5.93
2018-03-21T12:41:31.366Z,5.97
2018-03-21T12:43:59.820Z,4.53
2018-03-21T12:46:28.142Z,4.30
2018-03-21T12:48:56.517Z,8.57
2018-03-21T12:51:24.879Z,6.73
2018-03-21T12:53:54.382Z,5.63
2018-03-21T12:56:22.244Z,5.50
2018-03-21T12:58:50.631Z,7.33
2018-03-21T13:01:19.037Z,5.27
2018-03-21T13:03:46.631Z,9.87
2018-03-21T13:06:14.308Z,8.27
2018-03-21T13:08:41.898Z,7.33
2018-03-21T13:11:09.512Z,4.43
2018-03-21T13:13:37.171Z,5.03
2018-03-21T13:16:04.982Z,4.87
2018-03-21T13:18:33.333Z,6.93
2018-03-21T13:21:00.957Z,8.47
2018-03-21T13:23:29.221Z,6.07
2018-03-21T13:25:56.803Z,7.30
2018-03-21T13:28:24.460Z,3.27
2018-03-21T13:30:52.103Z,4.23
2018-03-21T13:33:19.746Z,4.60
2018-03-21T13:35:48.115Z,4.93
2018-03-21T13:38:16.475Z,10.10
2018-03-21T13:40:44.118Z,7.97
2018-03-21T13:43:11.719Z,9.07
2018-03-21T13:45:40.148Z,5.40
2018-03-21T13:48:07.772Z,8.80
2018-03-21T13:50:35.982Z,5.60
2018-03-21T13:53:03.596Z,9.93
2018-03-21T13:55:31.210Z,5.33
2018-03-21T13:57:58.816Z,5.57
2018-03-21T14:00:26.445Z,7.33
2018-03-21T14:02:54.826Z,3.50
2018-03-21T14:05:23.200Z,4.67
2018-03-21T14:07:51.582Z,9.40
2018-03-21T14:10:19.958Z,7.17
2018-03-21T14:12:47.594Z,6.07
2018-03-21T14:15:15.249Z,3.67
2018-03-21T14:17:42.840Z,7.60
2018-03-21T14:20:11.309Z,7.47
2018-03-21T14:22:38.955Z,6.40
2018-03-21T14:25:06.592Z,4.63
2018-03-21T14:27:34.200Z,5.57
2018-03-21T14:30:02.644Z,6.93
2018-03-21T14:32:31.149Z,5.10
2018-03-21T14:34:58.824Z,5.60
2018-03-21T14:37:27.197Z,7.03
2018-03-21T14:39:54.810Z,8.53
2018-03-21T14:42:22.594Z,6.90
2018-03-21T14:44:50.370Z,6.87
2018-03-21T14:47:17.946Z,5.80
2018-03-21T14:49:45.553Z,7.03
2018-03-21T14:52:13.203Z,7.43
2018-03-21T14:54:40.826Z,3.27
2018-03-21T14:57:08.454Z,5.27
2018-03-21T14:59:36.053Z,7.67
2018-03-21T15:02:03.666Z,3.57
2018-03-21T15:04:31.283Z,6.87
2018-03-21T15:06:59.632Z,4.10
2018-03-21T15:09:27.851Z,5.43
2018-03-21T15:11:55.512Z,4.73
2018-03-21T15:14:23.623Z,8.43
2018-03-21T15:16:51.826Z,6.00
2018-03-21T15:19:19.422Z,7.93
2018-03-21T15:21:47.014Z,9.40
2018-03-21T15:24:14.738Z,5.73
2018-03-21T15:26:42.330Z,5.73
2018-03-21T15:29:10.636Z,5.47
2018-03-21T15:31:39.178Z,4.17
2018-03-21T15:34:06.818Z,3.83
2018-03-21T15:36:34.488Z,6.00
2018-03-21T15:39:02.110Z,7.13
2018-03-21T15:41:29.698Z,5.77
2018-03-21T15:43:57.303Z,7.47
2018-03-21T15:46:25.113Z,7.27
2018-03-21T15:48:52.710Z,5.87
2018-03-21T15:51:20.321Z,4.93
2018-03-21T15:53:48.699Z,6.47
2018-03-21T15:56:17.047Z,7.60
2018-03-21T15:58:44.703Z,6.37
2018-03-21T16:01:12.300Z,5.73
2018-03-21T16:03:40.654Z,7.20
2018-03-21T16:06:09.495Z,5.60
2018-03-21T16:08:37.167Z,8.50
2018-03-21T16:11:05.520Z,6.33
2018-03-21T16:13:33.156Z,7.10
2018-03-21T16:16:01.755Z,4.97
2018-03-21T16:18:29.358Z,7.87
2018-03-21T16:20:57.008Z,5.93
2018-03-21T16:23:24.654Z,4.73
2018-03-21T16:25:52.256Z,8.03
2018-03-21T16:28:19.943Z,5.70
2018-03-21T16:30:47.514Z,6.97
2018-03-21T16:33:15.891Z,9.70
2018-03-21T16:35:44.276Z,6.50
2018-03-21T16:38:11.864Z,10.03
2018-03-21T16:40:39.482Z,12.23
2018-03-21T16:43:07.859Z,5.83
2018-03-21T16:45:35.486Z,5.93
2018-03-21T16:48:03.090Z,9.03
2018-03-21T16:50:30.707Z,7.13
2018-03-21T16:52:59.061Z,6.27
2018-03-21T16:55:26.678Z,5.30
2018-03-21T16:57:55.031Z,4.53
2018-03-21T17:00:22.668Z,7.03
2018-03-21T17:02:50.766Z,9.23
2018-03-21T17:05:18.355Z,5.23
2018-03-21T17:07:45.994Z,8.50
2018-03-21T17:10:14.453Z,8.93
2018-03-21T17:12:42.019Z,13.03
2018-03-21T17:15:09.612Z,6.57
2018-03-21T17:17:37.990Z,6.73
2018-03-21T17:20:05.580Z,7.97
2018-03-21T17:22:33.187Z,8.53
2018-03-21T17:25:00.782Z,7.17
2018-03-21T17:27:28.400Z,8.23
2018-03-21T17:29:56.024Z,6.93
2018-03-21T17:32:23.615Z,9.67
2018-03-21T17:34:51.275Z,9.03
2018-03-21T17:37:19.035Z,8.03
2018-03-21T17:39:46.742Z,10.00
2018-03-21T17:42:14.386Z,9.20
2018-03-21T17:44:42.726Z,7.97
2018-03-21T17:47:10.356Z,9.73
2018-03-21T17:49:37.984Z,11.23
2018-03-21T17:52:06.389Z,9.63
2018-03-21T17:54:33.971Z,7.23
2018-03-21T17:57:01.554Z,9.33
2018-03-21T17:59:29.951Z,8.60
2018-03-21T18:01:58.331Z,9.70
2018-03-21T18:04:26.703Z,8.67
2018-03-21T18:06:54.337Z,7.77
2018-03-21T18:09:21.938Z,10.83
2018-03-21T18:11:50.294Z,13.97
2018-03-21T18:14:17.914Z,10.17
2018-03-21T18:16:45.496Z,8.83
2018-03-21T18:19:13.088Z,21.43
2018-03-21T18:21:41.507Z,14.03
2018-03-21T18:24:09.116Z,19.27
2018-03-21T18:26:36.758Z,14.00
2018-03-21T18:29:04.426Z,11.17
2018-03-21T18:31:32.138Z,11.87
2018-03-21T18:33:59.775Z,11.37
2018-03-21T18:36:28.149Z,11.00
2018-03-21T18:38:56.545Z,7.50
2018-03-21T18:41:24.167Z,12.10
2018-03-21T18:43:51.982Z,11.37
2018-03-21T18:46:19.613Z,8.93
2018-03-21T18:48:48.122Z,11.57
2018-03-21T18:51:15.742Z,9.60
2018-03-21T18:53:44.112Z,10.23
2018-03-21T18:56:13.215Z,9.53
2018-03-21T18:58:41.767Z,10.40
2018-03-21T19:01:09.374Z,10.00
2018-03-21T19:03:37.809Z,8.87
2018-03-21T19:06:05.410Z,9.37
2018-03-21T19:08:33.786Z,8.00
2018-03-21T19:11:02.150Z,12.60
2018-03-21T19:13:30.769Z,10.10
2018-03-21T19:15:58.395Z,8.97
2018-03-21T19:18:26.834Z,7.30
2018-03-21T19:20:55.431Z,12.93
2018-03-21T19:23:23.232Z,9.00
2018-03-21T19:25:51.637Z,9.73
2018-03-21T19:28:19.273Z,11.97
2018-03-21T19:30:46.932Z,12.47
2018-03-21T19:33:15.897Z,12.97
2018-03-21T19:35:43.524Z,12.83
2018-03-21T19:38:11.184Z,14.47
2018-03-21T19:40:38.913Z,13.63
2018-03-21T19:43:07.284Z,14.10
2018-03-21T19:45:35.824Z,16.43
2018-03-21T19:48:04.782Z,13.97
2018-03-21T19:50:33.386Z,13.67
2018-03-21T19:53:02.009Z,10.07
2018-03-21T19:55:29.610Z,19.50
2018-03-21T19:57:57.390Z,18.43
2018-03-21T20:00:25.002Z,16.87
2018-03-21T20:02:53.379Z,17.03
2018-03-21T20:05:21.794Z,15.53
2018-03-21T20:07:49.548Z,17.03
2018-03-21T20:10:17.358Z,10.70
2018-03-21T20:12:44.967Z,9.27
2018-03-21T20:15:12.864Z,12.13
2018-03-21T20:17:40.658Z,13.93
2018-03-21T20:20:08.311Z,11.40
2018-03-21T20:22:36.046Z,11.07
2018-03-21T20:25:03.706Z,10.13
2018-03-21T20:27:32.093Z,11.77
2018-03-21T20:30:00.759Z,15.13
2018-03-21T20:32:29.059Z,9.17
2018-03-21T20:34:56.960Z,9.50
2018-03-21T20:37:36.899Z,10.10
2018-03-21T20:40:04.869Z,10.63
2018-03-21T20:42:32.755Z,10.03
2018-03-21T20:45:01.778Z,11.47
2018-03-21T20:47:38.461Z,11.33
2018-03-21T20:50:06.408Z,13.37
2018-03-21T20:52:34.831Z,12.53
2018-03-21T20:55:08.869Z,9.77
2018-03-21T20:57:37.615Z,10.07
2018-03-21T21:00:06.613Z,7.93
2018-03-21T21:02:49.319Z,8.33
2018-03-21T21:05:19.072Z,13.40
2018-03-21T21:07:47.960Z,9.27
2018-03-21T21:10:16.423Z,9.30
2018-03-21T21:12:45.014Z,11.47
2018-03-21T21:15:12.931Z,9.80
2018-03-21T21:17:40.938Z,9.70
2018-03-21T21:20:10.222Z,10.60
2018-03-21T21:22:40.215Z,8.37
2018-03-21T21:25:09.229Z,9.57
2018-03-21T21:27:37.480Z,12.43
2018-03-21T21:30:05.710Z,8.27
2018-03-21T21:32:34.129Z,10.10
2018-03-21T21:35:04.868Z,10.20
2018-03-21T21:37:37.831Z,10.77
2018-03-21T21:40:10.613Z,6.40
2018-03-21T21:42:39.026Z,9.87
2018-03-21T21:45:06.833Z,9.63
2018-03-21T21:47:34.450Z,8.40
2018-03-21T21:50:02.051Z,9.77
2018-03-21T21:52:29.659Z,10.17
2018-03-21T21:54:57.338Z,11.17
2018-03-21T21:57:24.915Z,8.97
2018-03-21T21:59:52.571Z,12.17
2018-03-21T22:02:20.287Z,10.63
2018-03-21T22:04:47.899Z,9.40
2018-03-21T22:07:15.488Z,8.87
2018-03-21T22:09:43.878Z,9.60
2018-03-21T22:12:18.060Z,11.97
2018-03-21T22:14:45.699Z,9.70
2018-03-21T22:17:13.282Z,10.70
2018-03-21T22:19:41.660Z,9.93
2018-03-21T22:22:09.293Z,9.60
2018-03-21T22:24:36.922Z,8.97
2018-03-21T22:27:05.151Z,7.77
2018-03-21T22:29:32.823Z,8.87
2018-03-21T22:32:01.178Z,9.40
2018-03-21T22:34:28.785Z,10.07
2018-03-21T22:36:56.393Z,10.43
2018-03-21T22:39:24.705Z,11.57
2018-03-21T22:41:53.102Z,9.40
2018-03-21T22:44:20.693Z,9.63
2018-03-21T22:46:48.267Z,9.20
2018-03-21T22:49:15.878Z,7.87
2018-03-21T22:51:43.519Z,10.13
2018-03-21T22:54:11.875Z,14.37
2018-03-21T22:56:39.503Z,10.13
2018-03-21T22:59:07.717Z,10.30
2018-03-21T23:01:35.298Z,9.07
2018-03-21T23:04:03.678Z,8.80
2018-03-21T23:06:32.051Z,10.83
2018-03-21T23:09:00.389Z,9.53
2018-03-21T23:11:28.020Z,8.93
2018-03-21T23:13:55.680Z,12.43
2018-03-21T23:16:23.297Z,9.37
2018-03-21T23:18:51.737Z,8.57
2018-03-21T23:21:19.325Z,10.47
2018-03-21T23:23:46.898Z,9.10
2018-03-21T23:26:15.904Z,9.63
2018-03-21T23:28:44.287Z,8.60
2018-03-21T23:31:11.923Z,10.07
2018-03-21T23:33:39.553Z,8.30
2018-03-21T23:36:07.167Z,10.93
2018-03-21T23:38:35.562Z,11.70
2018-03-21T23:41:03.238Z,14.73
2018-03-21T23:43:30.878Z,12.37
2018-03-21T23:45:58.515Z,14.20
2018-03-21T23:48:26.927Z,9.10
2018-03-21T23:50:54.525Z,12.07
2018-03-21T23:53:22.973Z,10.50
2018-03-21T23:55:50.600Z,13.53
2018-03-21T23:58:19.052Z,13.37
